Terminal Aerodrome Forecast
Issued by NWS Cleveland, OH

Home | Current Version | Previous Version | Text Only | Print | Product List | Glossary Off
Versions: 1 2 3 4 5 6 7 8 9 10 11 12 13 14 15 16 17 18 19 20 21 22 23 24 25

000
FTUS41 KCLE 311115 AAA
TAFYNG
TAF AMD
KYNG 311115Z 3111/0106 VRB05KT 5SM -SHRA BR BKN012 OVC050
      TEMPO 3111/3113 2SM -TSRA BR BKN008 OVC020CB
     FM311300 01008KT 4SM -SHRA BR OVC015
     FM311600 06010KT 2SM -SHRA BR OVC008
     FM311800 02012KT 4SM -SHRA VCTS BKN015CB OVC025
     FM312300 01008KT P6SM OVC006=

USA.gov is the U.S. government's official web portal to all federal, state and local government web resources and services.